Data for 06/21/2006

Time Sea-Level Adjusted Pressure Absolute Pressure Temperature Relative Humidity Dew Point   
(mb) (inHg) (mb) (inHg) (C) (F) (%) (C) (F)
00:05 1022 30.18 851 25.13 10.1 50.2 58 2.3 36.1
00:10 1022 30.18 851 25.13 10.1 50.2 57 2.1 35.9
00:15 1022 30.18 851 25.13 10.1 50.2 57 2 35.6
00:20 1022 30.18 851 25.13 10.2 50.4 55 1.7 35
00:25 1022 30.18 851 25.13 10.3 50.5 55 1.7 35.1
00:30 1022 30.18 851 25.13 10.3 50.5 54 1.5 34.6
00:35 1022 30.18 851 25.13 10.3 50.6 55 1.8 35.2
00:40 1022 30.18 851 25.13 10.1 50.2 57 2 35.5
00:45 1022 30.18 851 25.13 9.8 49.6 58 1.9 35.4
00:50 1022 30.18 851 25.13 9.6 49.2 59 2 35.6
00:55 1022 30.18 851 25.13 9.4 49 59 1.9 35.4
01:00 1022 30.18 851 25.13 9.6 49.3 56 1.3 34.4
01:05 1022 30.18 851 25.13 9.7 49.5 55 1.1 33.9
01:10 1022 30.18 851 25.13 9.9 49.9 54 1.1 34
01:15 1022 30.18 851 25.13 10.1 50.2 53 1.1 34
01:20 1022 30.18 851 25.13 10.2 50.3 52 0.8 33.4
01:25 1022 30.18 851 25.13 10.4 50.8 51 0.8 33.4
01:30 1022 30.18 851 25.13 10.6 51.1 51 0.8 33.5
01:35 1022 30.18 851 25.13 10.4 50.8 52 1 33.9
01:40 1022 30.18 851 25.13 10.3 50.5 52 1 33.8
01:45 1022 30.18 851 25.13 10.2 50.4 53 1 33.8
01:50 1022 30.18 851 25.13 10.1 50.1 54 1.2 34.2
01:55 1022 30.18 851 25.13 9.6 49.3 57 1.4 34.6
02:00 1022 30.18 851 25.13 9.3 48.7 57 1.3 34.4
02:05 1022 30.18 851 25.13 9.3 48.7 58 1.5 34.6
02:10 1022 30.18 851 25.13 9.1 48.3 58 1.4 34.5
02:15 1022 30.18 851 25.13 8.9 48.1 59 1.3 34.3
02:20 1022 30.18 851 25.13 9 48.2 57 0.9 33.7
02:25 1022 30.18 851 25.13 9.2 48.6 56 0.9 33.6
02:30 1022 30.18 851 25.13 9.3 48.7 55 0.8 33.4
02:35 1022 30.18 851 25.13 9.4 48.9 54 0.7 33.2
02:40 1022 30.18 851 25.13 9.5 49.2 55 1 33.7
02:45 1022 30.18 851 25.13 9.6 49.3 55 1.1 34
02:50 1022 30.18 851 25.13 9.5 49 55 1 33.8
02:55 1022 30.18 851 25.13 9.3 48.8 55 0.9 33.5
03:00 1022 30.18 851 25.13 9.3 48.7 54 0.6 33
03:05 1022 30.18 851 25.13 9.3 48.7 56 0.9 33.6
03:10 1022 30.18 851 25.13 9.2 48.6 56 1 33.9
03:15 1022 30.18 851 25.13 9 48.3 57 1 33.8
03:20 1022 30.18 851 25.13 9 48.3 57 1 33.7
03:25 1022 30.18 851 25.13 8.8 47.8 58 0.9 33.7
03:30 1022 30.18 851 25.13 8.5 47.3 59 1 33.7
03:35 1022 30.18 851 25.13 8.4 47.1 60 1.1 34
03:40 1022 30.18 851 25.13 8.3 46.9 61 1.2 34.1
03:45 1022 30.18 851 25.13 8.1 46.6 60 0.8 33.5
03:50 1022 30.18 851 25.13 8.2 46.8 59 0.7 33.2
03:55 1022 30.18 851 25.13 8.2 46.7 60 0.9 33.6
04:00 1022 30.18 851 25.13 8.3 47 57 0.3 32.5
04:05 1022 30.18 851 25.13 8.4 47.1 57 0.4 32.7
04:10 1022 30.18 851 25.13 8.3 47 58 0.6 33
04:15 1022 30.18 851 25.13 8.2 46.8 58 0.5 32.9
04:20 1022 30.18 851 25.13 8.2 46.8 58 0.4 32.8
04:25 1022 30.18 851 25.13 8.2 46.7 58 0.4 32.7
04:30 1022 30.18 851 25.13 8 46.4 59 0.5 32.9
04:35 1022 30.18 851 25.13 7.9 46.2 58 0.2 32.4
04:40 1022 30.18 851 25.13 7.9 46.3 58 0.2 32.4
04:45 1022 30.18 851 25.13 8.1 46.6 58 0.4 32.7
04:50 1022 30.18 851 25.13 8 46.5 58 0.3 32.6
04:55 1022 30.18 851 25.13 8 46.4 58 0.2 32.3
05:00 1022 30.18 851 25.13 8 46.4 57 0.1 32.2
05:05 1022 30.18 851 25.13 8.1 46.6 58 0.3 32.5
05:10 1022 30.18 851 25.13 8 46.5 58 0.2 32.4
05:15 1022 30.18 851 25.13 8 46.4 59 0.5 32.9
05:20 1022 30.18 851 25.13 7.7 45.9 61 0.7 33.2
05:25 1022 30.18 851 25.13 7.4 45.4 61 0.4 32.8
05:30 1022 30.18 851 25.13 7.9 46.1 58 0.1 32.1
05:35 1022 30.18 851 25.13 8.1 46.6 57 0 32
05:40 1022 30.18 852 25.16 8 46.4 60 0.7 33.2
05:45 1022 30.18 852 25.16 7.5 45.6 61 0.6 33
05:50 1022 30.18 852 25.16 7 44.5 64 0.6 33
05:55 1022 30.18 852 25.16 6.9 44.5 63 0.5 32.9
06:00 1022 30.18 852 25.16 7.2 45 61 0.2 32.4
06:05 1022 30.18 852 25.16 7.2 45 60 0.1 32.2
06:10 1022 30.18 852 25.16 7.4 45.2 60 0.1 32.1
06:15 1022 30.18 852 25.16 7.6 45.6 59 0 32
06:20 1022 30.18 852 25.16 7.5 45.6 59 0.1 32.2
06:25 1022 30.18 852 25.16 7.6 45.7 60 0.3 32.5
06:30 1023 30.21 852 25.16 7.7 45.9 60 0.6 33
06:35 1023 30.21 852 25.16 7.9 46.3 58 0.2 32.4
06:40 1023 30.21 852 25.16 8.2 46.7 58 0.5 33
06:45 1023 30.21 852 25.16 8.2 46.7 58 0.4 32.6
06:50 1023 30.21 852 25.16 8.2 46.7 60 0.9 33.5
06:55 1023 30.21 852 25.16 8.2 46.7 61 1.2 34.1
07:00 1023 30.21 852 25.16 8.3 47 60 1.1 33.9
07:05 1023 30.21 852 25.16 8.7 47.6 60 1.3 34.3
07:10 1023 30.21 852 25.16 8.9 48.1 60 1.5 34.7
07:15 1023 30.21 852 25.16 9.1 48.4 59 1.5 34.7
07:20 1023 30.21 852 25.16 9.1 48.3 58 1.3 34.3
07:25 1023 30.21 852 25.16 8.9 47.9 59 1.4 34.5
07:30 1023 30.21 852 25.16 9 48.2 57 0.8 33.5
07:35 1023 30.21 852 25.16 9.3 48.7 57 1.2 34.1
07:40 1023 30.21 852 25.16 9.9 49.9 54 1.2 34.1
07:45 1023 30.21 852 25.16 10.5 51 54 1.5 34.8
07:50 1023 30.21 852 25.16 10.7 51.3 52 1.4 34.6
07:55 1023 30.21 852 25.16 10.7 51.3 54 1.8 35.2
08:00 1023 30.21 852 25.16 11.1 51.9 54 2.1 35.8
08:05 1023 30.21 852 25.16 11.5 52.7 50 1.4 34.5
08:10 1023 30.21 852 25.16 11.9 53.4 46 0.6 33.1
08:15 1023 30.21 852 25.16 12.2 54 44 0.2 32.4
08:20 1023 30.21 852 25.16 12.5 54.4 45 0.9 33.6
08:25 1023 30.21 852 25.16 13.4 56.1 43 1.2 34.1
08:30 1023 30.21 852 25.16 14.4 57.8 40 1.1 34.1
08:35 1023 30.21 852 25.16 14.3 57.8 41 1.5 34.6
08:40 1023 30.21 852 25.16 14.2 57.6 42 1.7 35.1
08:45 1023 30.21 852 25.16 14.3 57.7 44 2.3 36.1
08:50 1023 30.21 852 25.16 14.9 58.8 42 2.1 35.7
08:55 1023 30.21 852 25.16 15.3 59.5 42 2.4 36.2
09:00 1023 30.21 852 25.16 15.5 59.8 43 3 37.5
09:05 1023 30.21 852 25.16 15.8 60.4 43 3.4 38.1
09:10 1023 30.21 852 25.16 16.3 61.3 43 3.7 38.6
09:15 1023 30.21 852 25.16 16.2 61.1 40 2.5 36.5
09:20 1023 30.21 852 25.16 16.1 61 37 1.5 34.7
09:25 1023 30.21 852 25.16 15.9 60.6 37 1.5 34.7
09:30 1023 30.21 852 25.16 16.1 60.9 37 1.6 34.9
09:35 1023 30.21 852 25.16 16.5 61.7 39 2.7 36.9
09:40 1023 30.21 852 25.16 16.5 61.7 37 2.1 35.7
09:45 1023 30.21 852 25.16 16.7 62 35 1.3 34.4
09:50 1023 30.21 852 25.16 16 60.9 38 1.8 35.2
09:55 1023 30.21 852 25.16 15.5 59.8 39 1.7 35.1
10:00 1023 30.21 852 25.16 15.6 60 41 2.4 36.4
10:05 1023 30.21 852 25.16 15.4 59.6 41 2.4 36.3
10:10 1023 30.21 852 25.16 15.1 59.1 41 2 35.7
10:15 1023 30.21 852 25.16 15.3 59.6 43 2.8 37
10:20 1023 30.21 852 25.16 16.1 61 38 2 35.5
10:25 1023 30.21 852 25.16 16.5 61.8 37 1.7 35.1
10:30 1023 30.21 852 25.16 16.8 62.3 37 2.3 36.1
10:35 1023 30.21 852 25.16 17.4 63.3 32 0.6 33.1
10:40 1023 30.21 852 25.16 17 62.6 33 0.9 33.7
10:45 1023 30.21 852 25.16 17.2 62.9 34 1.4 34.5
10:50 1023 30.21 852 25.16 17.4 63.3 33 1 33.8
10:55 1023 30.21 852 25.16 16.9 62.4 33 0.8 33.5
11:00 1023 30.21 852 25.16 17.1 62.7 34 1.2 34.2
11:05 1023 30.21 852 25.16 17.4 63.2 33 1 33.7
11:10 1023 30.21 852 25.16 17.3 63.2 34 1.4 34.5
11:15 1023 30.21 852 25.16 17.9 64.2 31 0.8 33.5
11:20 1023 30.21 852 25.16 18 64.4 32 1.1 33.9
11:25 1023 30.21 852 25.16 18.6 65.6 29 0.5 33
11:30 1023 30.21 852 25.16 17.9 64.2 31 0.8 33.5
11:35 1023 30.21 852 25.16 18.6 65.5 30 0.8 33.4
11:40 1023 30.21 852 25.16 18.6 65.5 31 1.2 34.2
11:45 1023 30.21 852 25.16 17.8 64 33 1.3 34.4
11:50 1023 30.21 852 25.16 17.8 64 31 0.6 33.1
11:55 1023 30.21 852 25.16 18.1 64.5 32 1.1 34
12:00 1023 30.21 852 25.16 18.7 65.6 31 1.3 34.4
12:05 1023 30.21 852 25.16 18.7 65.6 30 0.8 33.5
12:10 1023 30.21 852 25.16 17.7 63.9 31 0.7 33.3
12:15 1023 30.21 852 25.16 18.3 65 31 1.1 34
12:20 1023 30.21 852 25.16 18.4 65.2 33 1.8 35.3
12:25 1023 30.21 852 25.16 18 64.4 34 2 35.5
12:30 1023 30.21 852 25.16 19 66.1 30 1.3 34.4
12:35 1023 30.21 852 25.16 19.7 67.4 30 2 35.5
12:40 1023 30.21 852 25.16 19 66.1 31 1.4 34.5
12:45 1023 30.21 852 25.16 19.5 67.1 30 1.7 35.1
12:50 1023 30.21 852 25.16 19.9 67.7 29 1.5 34.6
12:55 1023 30.21 852 25.16 19.5 67.1 30 1.7 35
13:00 1023 30.21 852 25.16 19.4 67 30 1.7 35.1
13:05 1023 30.21 852 25.16 20.3 68.6 29 1.8 35.2
13:10 1023 30.21 852 25.16 19.3 66.8 31 1.9 35.4
13:15 1023 30.21 852 25.16 18.1 64.5 33 1.7 35.1
13:20 1023 30.21 852 25.16 19 66.3 31 1.8 35.3
13:25 1023 30.21 852 25.16 19.9 67.9 30 2 35.7
13:30 1023 30.21 852 25.16 20.1 68.2 28 1.4 34.5
13:35 1023 30.21 852 25.16 20.4 68.7 30 2.2 36
13:40 1023 30.21 852 25.16 20.2 68.4 28 1.3 34.4
13:45 1023 30.21 852 25.16 20.5 68.8 28 1.5 34.7
13:50 1023 30.21 852 25.16 19.6 67.2 30 1.6 35
13:55 1023 30.21 852 25.16 20.3 68.5 28 1.1 34
14:00 1023 30.21 852 25.16 20.9 69.6 26 1.1 34
14:05 1023 30.21 852 25.16 21.1 69.9 25 0.5 32.9
14:10 1023 30.21 852 25.16 21 69.8 25 0.5 32.9
14:15 1023 30.21 852 25.16 20.8 69.5 26 0.8 33.4
14:20 1023 30.21 852 25.16 20.6 69 26 0.5 32.9
14:25 1023 30.21 852 25.16 20.7 69.2 26 0.7 33.3
14:30 1023 30.21 852 25.16 21.3 70.3 24 0.1 32.2
14:35 1023 30.21 852 25.16 20.9 69.7 24 -0.3 31.5
14:40 1023 30.21 852 25.16 20.6 69 24 -0.5 31
14:45 1023 30.21 852 25.16 20 67.9 25 -0.4 31.2
14:50 1023 30.21 852 25.16 20.3 68.5 25 -0.1 31.8
14:55 1023 30.21 852 25.16 21.3 70.3 23 -0.6 30.8
15:00 1023 30.21 852 25.16 21.2 70.2 23 -0.4 31.3
15:05 1023 30.21 852 25.16 20.8 69.4 26 0.8 33.4
15:10 1023 30.21 852 25.16 21.2 70.1 26 1.3 34.3
15:15 1023 30.21 852 25.16 21.3 70.3 24 -0 32
15:20 1023 30.21 852 25.16 21.7 71 25 0.8 33.4
15:25 1023 30.21 852 25.16 21.9 71.4 25 1 33.7
15:30 1023 30.21 852 25.16 21.8 71.2 26 1.8 35.3
15:35 1023 30.21 852 25.16 21.3 70.4 26 1.4 34.6
15:40 1023 30.21 852 25.16 20.5 69 26 0.7 33.3
15:45 1022 30.18 852 25.16 22 71.6 26 1.6 34.9
15:50 1022 30.18 852 25.16 22.1 71.7 26 1.9 35.4
15:55 1022 30.18 852 25.16 22.4 72.3 25 1.8 35.2
16:00 1022 30.18 852 25.16 22.2 72 25 1.5 34.6
16:05 1022 30.18 852 25.16 22.1 71.7 26 1.7 35
16:10 1022 30.18 852 25.16 21.6 70.9 25 1.2 34.2
16:15 1022 30.18 852 25.16 22.1 71.8 26 1.7 35
16:20 1022 30.18 852 25.16 22.5 72.5 25 1.9 35.4
16:25 1022 30.18 852 25.16 22.6 72.7 25 2 35.7
16:30 1022 30.18 852 25.16 22.4 72.3 26 2.4 36.3
16:35 1022 30.18 852 25.16 22 71.6 26 1.6 35
16:40 1022 30.18 852 25.16 21.8 71.2 26 1.7 35
16:45 1022 30.18 852 25.16 21.9 71.4 25 1 33.7
16:50 1022 30.18 852 25.16 22.3 72.1 25 1.5 34.6
16:55 1022 30.18 851 25.13 22.2 71.9 26 1.7 35.1
17:00 1022 30.18 851 25.13 22.2 71.9 25 1.2 34.2
17:05 1022 30.18 851 25.13 22 71.6 24 0.9 33.6
17:10 1022 30.18 851 25.13 22.3 72.1 24 1 33.9
17:15 1022 30.18 851 25.13 22.5 72.4 24 1.1 34.1
17:20 1022 30.18 851 25.13 22.6 72.7 24 1.2 34.2
17:25 1022 30.18 851 25.13 22.4 72.2 25 1.3 34.4
17:30 1022 30.18 851 25.13 22 71.6 25 1 33.8
17:35 1022 30.18 851 25.13 21.7 71 25 0.8 33.5
17:40 1022 30.18 851 25.13 21.7 71 24 0.4 32.7
17:45 1022 30.18 851 25.13 22.2 71.9 24 0.8 33.4
17:50 1022 30.18 851 25.13 21.8 71.2 23 -0.2 31.7
17:55 1022 30.18 851 25.13 20.9 69.7 25 0.4 32.7
18:00 1022 30.18 851 25.13 21.4 70.4 25 0.5 32.9
18:05 1022 30.18 851 25.13 21.7 71 23 -0.2 31.7
18:10 1022 30.18 851 25.13 21.1 70 23 -0.4 31.3
18:15 1022 30.18 851 25.13 21.3 70.4 24 0.3 32.5
18:20 1022 30.18 851 25.13 21.6 71 22 -0.5 31.1
18:25 1022 30.18 851 25.13 21.9 71.5 23 0.2 32.3
18:30 1022 30.18 851 25.13 21.3 70.4 23 -0.4 31.2
18:35 1022 30.18 851 25.13 21.4 70.5 23 -0.6 31
18:40 1022 30.18 851 25.13 21 69.7 25 0.4 32.6
18:45 1022 30.18 851 25.13 21.2 70.2 23 -0.5 31.1
18:50 1022 30.18 851 25.13 21.5 70.8 23 -0.5 31
18:55 1022 30.18 851 25.13 21.7 71.1 23 -0.2 31.7
19:00 1022 30.18 851 25.13 21.6 70.8 24 0 32.1
19:05 1022 30.18 851 25.13 21.6 70.9 23 0 32.1
19:10 1022 30.18 851 25.13 21.4 70.6 23 -0.2 31.7
19:15 1022 30.18 851 25.13 21.1 70 24 -0.1 31.9
19:20 1022 30.18 851 25.13 21.2 70.2 23 -0.3 31.5
19:25 1022 30.18 851 25.13 20.7 69.2 25 -0.1 31.8
19:30 1022 30.18 851 25.13 20 68.1 25 -0.5 31.2
19:35 1022 30.18 852 25.16 19.8 67.6 25 -0.6 30.9
19:40 1022 30.18 852 25.16 20 67.9 25 -0.6 30.8
19:45 1022 30.18 852 25.16 20 67.9 25 -0.4 31.2
19:50 1022 30.18 852 25.16 19.8 67.7 25 -0.8 30.6
19:55 1022 30.18 852 25.16 19.7 67.4 25 -0.5 31.1
20:00 1023 30.21 852 25.16 19.6 67.2 27 0.1 32.1
20:05 1023 30.21 852 25.16 19.6 67.2 25 -0.7 30.8
20:10 1023 30.21 852 25.16 19.4 66.9 25 -0.9 30.4
20:15 1023 30.21 852 25.16 19.3 66.7 25 -1.3 29.7
20:20 1023 30.21 852 25.16 19.3 66.8 26 -0.6 31
20:25 1023 30.21 852 25.16 19.4 66.9 26 -0.6 30.9
20:30 1023 30.21 852 25.16 19.4 66.9 25 -1.1 29.9
20:35 1023 30.21 852 25.16 19.4 66.9 26 -0.7 30.7
20:40 1023 30.21 852 25.16 19.2 66.6 25 -1 30.2
20:45 1023 30.21 852 25.16 19.2 66.6 26 -0.9 30.4
20:50 1023 30.21 852 25.16 19.1 66.3 26 -0.6 30.9
20:55 1023 30.21 852 25.16 19 66.1 26 -0.6 30.9
21:00 1023 30.21 852 25.16 18.9 66 27 -0.1 31.7
21:05 1023 30.21 852 25.16 18.8 65.8 29 0.7 33.2
21:10 1023 30.21 852 25.16 18.8 65.8 27 -0.5 31.2
21:15 1023 30.21 852 25.16 18.7 65.7 29 0.7 33.2
21:20 1023 30.21 852 25.16 18.2 64.7 40 4.4 39.9
21:25 1023 30.21 852 25.16 17.1 62.8 44 5 41
21:30 1023 30.21 852 25.16 16.4 61.4 47 5.2 41.4
21:35 1023 30.21 852 25.16 15.3 59.6 47 4.3 39.7
21:40 1023 30.21 852 25.16 15.4 59.7 45 3.5 38.3
21:45 1023 30.21 852 25.16 15.4 59.8 47 4.3 39.8
21:50 1023 30.21 852 25.16 15.5 59.9 46 4.1 39.3
21:55 1023 30.21 852 25.16 15.4 59.7 47 4.2 39.6
22:00 1023 30.21 853 25.19 15 59 49 4.5 40.1
22:05 1023 30.21 853 25.19 14.9 58.7 49 4.5 40
22:10 1023 30.21 853 25.19 14.9 58.9 49 4.4 40
22:15 1023 30.21 853 25.19 14.9 58.9 50 4.6 40.3
22:20 1023 30.21 853 25.19 14.4 57.9 56 5.8 42.4
22:25 1024 30.24 853 25.19 13.6 56.4 53 4.4 39.9
22:30 1024 30.24 853 25.19 13 55.3 55 4.3 39.8
22:35 1024 30.24 853 25.19 12.7 54.8 57 4.4 39.8
22:40 1024 30.24 853 25.19 12.5 54.5 57 4.4 39.9
22:45 1024 30.24 853 25.19 12.5 54.4 60 5 41
22:50 1024 30.24 853 25.19 12.4 54.3 60 4.8 40.7
22:55 1024 30.24 853 25.19 12.2 54 59 4.6 40.2
23:00 1024 30.24 853 25.19 12.2 53.9 60 4.7 40.5
23:05 1024 30.24 853 25.19 12.1 53.7 60 4.6 40.3
23:10 1024 30.24 853 25.19 12.1 53.7 62 4.9 40.9
23:15 1024 30.24 853 25.19 12.3 54.1 60 4.8 40.6
23:20 1024 30.24 853 25.19 12.1 53.8 60 4.7 40.5
23:25 1024 30.24 853 25.19 12.5 54.4 58 4.6 40.2
23:30 1024 30.24 853 25.19 12.6 54.8 60 5 41.1
23:35 1024 30.24 853 25.19 12.3 54.2 62 5.2 41.4
23:40 1024 30.24 853 25.19 11.9 53.4 63 5.1 41.1
23:45 1024 30.24 853 25.19 11.9 53.3 61 4.6 40.3
23:50 1024 30.24 853 25.19 12 53.7 60 4.7 40.4
23:55 1024 30.24 853 25.19 11.9 53.4 62 4.8 40.7
24:00 1024 30.24 853 25.19 12 53.6 60 4.5 40.1